UTAA

Ashgabat

Airport
ICAO code
UTAA
IATA Code
ASB
Summary
ICAO Region
EUR
ICAO Territory
Location

Ashgabat, Turkmenistan,

Serving
Ashgabat
Elevation
692 ft
Coordinates
37° 59' 13" N , 58° 21' 39" E
KCC
BWh
Airport LOS
Parallel Runway Operation
Metar
Observation
UTAA 081900Z 09008KT 9999 FEW100 33/08 Q1007 R88/CLRD70 NOSIG
Station
Ashgabat
Date/Time
2022-08-08 19:00:00
Wind direction
90°
Wind speed
08 kts
Lowest cloud amount
few clouds
Temperature
33°C
Dew point
8°C
Humidity
21%
QNH
1007 hPa
Weather condition
n/a

Description

International airport serving the city of Ashgabat.

Climatology

Hot Desert Climate (Köppen climate classification BWh) - Hot desert climates are typically found in the subtropics where there is unbroken sunshine for the whole year due to the stable descending air and high pressure, little or no precipitation. Maximum temperatures of 40°C to 45°C are not uncommon, particularly during the warmer months of the year. During colder periods of the year, night-time temperatures can drop to freezing or below due to the exceptional radiation loss under the clear skies. However, very rarely do temperatures drop far below freezing.

Runways

Designator Length Width Surface Rops
11/29 1800 35 ASP Yes/Yes
12R/30L 2989 60 CON Yes/Yes
12L/30R 3800 46 CON Yes/Yes

Airport map

Aerial View

SKYbrary Partners:

Safety knowledge contributed by: